• Join FlightAware (Why Join?)
  • Login
  • US Flag 
10:14AM EDT


 

Airport Tracker/Info


-or-


 

Live Flight TrackerFlight Track Log ✈ DAL268 ✈ 02-Jun-2013 ✈ KATL - KJFK

Flight Track Log - Related Links

Times and Time Zones

All times are in EDT time to prevent confusion due to time zone crossing. See the DAL268 flight status page for this flight to view local times or setup timezone preferences in your user account.

Time Position Orientation Groundspeed Altitude Reporting Facility
EDT Latitude Longitude Course Direction KTS MPH feet Rate Location/Type
07:46PM 33.6167 -84.5000 64° Northeast 200 230 2,900  Level Atlanta TRACON
07:47PM 33.5833 -84.5667 239° Southwest 267 307 4,500 2,100 Climbing Atlanta TRACON
07:48PM 33.7118 -84.0040 101° East  Level FlightAware Approximate
07:48PM 33.5167 -84.5833 192° South 281 323 7,200  Level Atlanta TRACON
07:49PM 33.6886 -83.8646 101° East  Level FlightAware Approximate
07:49PM 33.4667 -84.5167 132° Southeast 310 357 9,700  Level Atlanta TRACON
07:50PM 33.6653 -83.7253 101° East  Level FlightAware Approximate
07:51PM 33.6677 -83.5901 64° Northeast  Level FlightAware Approximate
07:51PM 33.4683 -84.2531 89° East 358 412 12,200  Level Atlanta Center
07:52PM 33.5228 -84.1261 63° Northeast 398 458 13,900 1,980 Climbing Atlanta Center
07:53PM 33.5792 -83.9939 63° Northeast 425 489 16,200 2,040 Climbing Atlanta Center
07:54PM 33.6106 -83.8492 75° East 437 503 18,000 1,920 Climbing Atlanta Center
07:56PM 33.6283 -83.5547 86° East 447 514 22,000 1,560 Climbing Atlanta Center
07:57PM 33.6361 -83.4000 87° East 449 517 22,700 600 Climbing Atlanta Center
07:58PM 33.6475 -83.2403 85° East 472 543 23,300 1,020 Climbing Atlanta Center
07:59PM 33.6569 -83.0731 86° East 491 565 24,800 1,500 Climbing Atlanta Center
08:00PM 33.6678 -82.8881 86° East 498 573 26,300 1,200 Climbing Atlanta Center
08:01PM 33.6767 -82.7233 86° East 498 573 27,200 1,080 Climbing Atlanta Center
08:02PM 33.6872 -82.5608 85° East 493 567 28,500 900 Climbing Atlanta Center
08:04PM 33.6844 -82.2536 91° East 519 597 30,000 780 Climbing Jacksonville Center
08:05PM 33.6647 -82.0964 99° East 497 572 30,900 480 Climbing Jacksonville Center
08:06PM 33.6386 -81.9322 101° East 497 572 31,000  Climbing Jacksonville Center
08:07PM 33.6122 -81.7728 101° East 492 566 31,000  Level Jacksonville Center
08:08PM 33.5900 -81.6161 100° East 487 560 31,000  Level Jacksonville Center
08:09PM 33.5631 -81.4544 101° East 487 560 31,000  Level Jacksonville Center
08:10PM 33.5403 -81.2803 99° East 482 555 31,000  Level Jacksonville Center
08:11PM 33.5422 -81.1233 89° East 482 555 31,000  Level Jacksonville Center
08:12PM 33.5756 -80.9706 75° East 477 549 31,000 -60 Level Jacksonville Center
08:13PM 33.6253 -80.8247 68° East 467 537 30,900  Descending Jacksonville Center
08:14PM 33.7025 -80.6931 55° Northeast 462 532 31,000  Climbing Jacksonville Center
08:15PM 33.8053 -80.6006 37° Northeast 453 521 31,000  Level Jacksonville Center
08:16PM 33.9119 -80.5103 35° Northeast 445 512 31,000  Level Jacksonville Center
08:17PM 34.0189 -80.4247 34° Northeast 456 525 31,000 -60 Level Jacksonville Center
08:18PM 34.1233 -80.3339 36° Northeast 456 525 30,900  Descending Jacksonville Center
08:19PM 34.2278 -80.2403 37° Northeast 461 531 31,000  Climbing Jacksonville Center
08:20PM 34.3097 -80.1675 36° Northeast 461 531 31,000  Level Jacksonville Center
08:21PM 34.4225 -80.0708 35° Northeast 461 531 31,000  Level Jacksonville Center
08:24PM 34.6869 -79.8353 36° Northeast 447 514 31,000  Level Washington Center
08:25PM 34.7944 -79.7447 35° Northeast 460 529 31,000  Level Washington Center
08:26PM 34.8842 -79.6278 47° Northeast 460 529 31,000  Level Washington Center
08:27PM 34.9636 -79.4975 53° Northeast 467 537 31,000  Level Washington Center
08:28PM 35.0428 -79.3694 53° Northeast 467 537 31,000  Level Washington Center
08:29PM 35.1219 -79.2411 53° Northeast 472 543 31,000  Level Washington Center
08:30PM 35.1986 -79.1122 54° Northeast 472 543 31,000  Level Washington Center
08:31PM 35.2797 -78.9811 53° Northeast 472 543 31,000  Level Washington Center
08:32PM 35.3564 -78.8519 54° Northeast 472 543 31,000  Level Washington Center
08:33PM 35.4372 -78.7175 54° Northeast 488 562 31,000  Level Washington Center
08:34PM 35.5069 -78.6003 54° Northeast 488 562 31,000  Level Washington Center
08:35PM 35.5939 -78.4556 54° Northeast 488 562 31,000  Level Washington Center
08:36PM 35.6678 -78.3328 53° Northeast 496 571 31,000  Level Washington Center
08:37PM 35.7458 -78.1997 54° Northeast 486 559 31,000  Level Washington Center
08:38PM 35.8236 -78.0717 53° Northeast 479 551 31,000  Level Washington Center
08:39PM 35.9017 -77.9358 55° Northeast 479 551 31,000  Level Washington Center
08:40PM 35.9792 -77.8044 54° Northeast 479 551 31,000  Level Washington Center
08:41PM 36.0589 -77.6681 54° Northeast 479 551 31,000  Level Washington Center
08:42PM 36.1383 -77.5339 54° Northeast 479 551 31,000  Level Washington Center
08:43PM 36.2114 -77.4017 56° Northeast 473 544 31,000  Level Washington Center
08:44PM 36.3153 -77.2728 45° Northeast 473 544 31,000  Level Washington Center
08:45PM 36.4189 -77.1717 38° Northeast 466 536 31,000  Level Washington Center
08:46PM 36.5206 -77.0678 39° Northeast 471 542 31,000  Level Washington Center
08:47PM 36.6219 -76.9608 40° Northeast 471 542 31,000  Level Washington Center
08:48PM 36.7253 -76.8564 39° Northeast 477 549 31,000  Level Washington Center
08:49PM 36.8286 -76.7519 39° Northeast 477 549 31,000 -60 Level Washington Center
08:50PM 36.9275 -76.6467 40° Northeast 477 549 30,900 -780 Descending Washington Center
08:51PM 37.0286 -76.5389 40° Northeast 477 549 29,500 -960 Descending Washington Center
08:52PM 37.1169 -76.4150 48° Northeast 471 542 29,000 -300 Descending Washington Center
08:53PM 37.1889 -76.2931 53° Northeast 478 550 29,000  Level Washington Center
08:54PM 37.2667 -76.1633 53° Northeast 478 550 29,000  Level Washington Center
08:55PM 37.3589 -76.0203 51° Northeast 478 550 29,000  Level Washington Center
08:56PM 37.4408 -75.8875 52° Northeast 478 550 29,000  Level Washington Center
08:57PM 37.5222 -75.7619 51° Northeast 471 542 29,000  Level Washington Center
08:58PM 37.6267 -75.6653 36° Northeast 456 525 29,000  Level Washington Center
08:59PM 37.7456 -75.5969 24° Northeast 456 525 29,000  Level Washington Center
09:00PM 37.8644 -75.5286 24° Northeast 456 525 29,000  Level Washington Center
09:01PM 37.9811 -75.4628 24° Northeast 456 525 29,000  Level Washington Center
09:02PM 38.0936 -75.3781 31° Northeast 456 525 29,000  Level Washington Center
09:03PM 38.1978 -75.2719 39° Northeast 467 537 29,000  Level Washington Center
09:04PM 38.3036 -75.1683 38° Northeast 472 543 29,000  Level Washington Center
09:05PM 38.3950 -75.0672 41° Northeast 477 549 29,000  Level Washington Center
09:06PM 38.5050 -74.9628 37° Northeast 477 549 29,000  Level Washington Center
09:07PM 38.6086 -74.8531 40° Northeast 487 560 29,000 -60 Level Washington Center
09:08PM 38.7100 -74.7378 42° Northeast 487 560 28,900 -900 Descending Washington Center
09:09PM 38.8114 -74.6192 42° Northeast 487 560 27,300 -1,440 Descending Washington Center
09:10PM 38.9208 -74.5192 35° Northeast 487 560 26,100 -1,380 Descending Washington Center
09:11PM 39.0456 -74.4692 17° North 463 533 24,500 -1,440 Descending Washington Center
09:12PM 39.1619 -74.4272 16° North 453 521 23,300 -1,620 Descending Washington Center
09:13PM 39.2719 -74.3850 17° North 427 491 21,400 -1,680 Descending Washington Center
09:14PM 39.4472 -74.3222 15° North 406 467 19,000 -960 Descending New York Center
09:15PM 39.5633 -74.2769 17° North 400 460 19,000 -840 Level New York Center
09:16PM 39.6575 -74.1953 34° Northeast 392 451 17,300 -1,800 Descending New York Center
09:17PM 39.7328 -74.1100 41° Northeast 392 451 15,400 -1,980 Descending New York Center
09:18PM 39.8164 -74.0328 35° Northeast 383 441 13,400 -2,040 Descending New York Center
09:19PM 39.9219 -73.9783 22° Northeast 371 427 11,400 -1,260 Descending New York Center
09:20PM 40.0086 -73.9336 22° Northeast 349 402 11,000 -240 Descending New York Center
09:21PM 40.0911 -73.8967 19° North 318 366 11,000 -1,140 Level New York Center
09:23PM 40.1833 -73.8333 28° Northeast 312 359 8,400 -1,680 Descending New York TRACON
09:24PM 40.2500 -73.7333 49° Northeast 309 356 7,000 -720 Descending New York TRACON
09:25PM 40.3333 -73.6667 31° Northeast 309 356 7,000  Level New York TRACON
09:26PM 40.3833 -73.6333 27° Northeast 308 354 7,000 -300 Level New York TRACON
09:27PM 40.4667 -73.5667 31° Northeast 303 349 6,500 -660 Descending New York TRACON
09:28PM 40.5333 -73.5167 30° Northeast 295 339 5,700 -780 Descending New York TRACON
09:29PM 40.6167 -73.4500 31° Northeast 293 337 5,000 -840 Descending New York TRACON
09:30PM 40.6833 -73.4000 30° Northeast 290 334 4,000 -540 Descending New York TRACON
09:31PM 40.7500 -73.3833 11° North 283 326 4,000 -540 Level New York TRACON
09:32PM 40.8000 -73.4500 315° West 250 288 3,000 -540 Descending New York TRACON
09:33PM 40.8333 -73.5167 303° West 210 242 3,000 -480 Level New York TRACON
09:34PM 40.8333 -73.5833 270° West 197 227 2,100 -540 Descending New York TRACON
09:35PM 40.8000 -73.6333 229° Southwest 194 223 2,000 -60 Descending New York TRACON
09:36PM 40.7500 -73.6667 207° Southwest 163 188 2,000  Level New York TRACON